Карточка аэропорта URRP

Внимание!
Информация на этой странице в стадии наполнения.
Если вы не увидели какой-то информации, или заметили неточность - пожалуйста сообщите нам!
Спасибо!
Команда RU-STAFF
Название аэропортаПлатов
Название аэропорта (англ.)Platov
Превышение282 ft. (86 m.)
Координаты47°29.634', 39°55.482'
Высота перехода3500 ft
Эшелон переходаFL50 (QNH >= 996); FL60 (QNH < 996)
Коды ответчика1001-1017
Зона ОрВДРостов-на-Дону РПИ (URRV)
Данные METARURRP 172030Z 25002MPS CAVOK 21/18 Q1015 R23/CLRD70 TEMPO 0800 FG BKN002 RMK QFE753/1004
Проноз погоды (TAF)URRP 171955Z 1721/1821 27003G12MPS 6000 SCT016 SCT030CB TX30/1811Z TN18/1801Z PROB40 TEMPO 1800/1804 0200 FG FEW001 SCT020CB PROB40 TEMPO 1806/1815 -TSRA FEW005 BKN020CB
NOTAMshow/hide NOTAM
AWOS   TABLE

Информация о ВПП

ВПП Длина ВПП (м.) Покрытие Курс ВПП Частота ILS
233900Цементобетон226110.9
053900Цементобетон46111.5

Диспетчерские позиции

Позывной Наименование органа УВД Частота
URRP_R_APPПлатов - Круг121.2
URRP_GNDПлатов - руление119.0
URRP_TWRПлатов-Вышка119.7
URRP_DELПлатов-деливери127.1
URRP_APPПлатов-подход128.2



Спутниковое изображение